Time;durP1;ratioP1;P1;durP2;ratioP2;P2;SDS_P1;SDS_P2;PMS_P1;PMS_P2;Temp;Humidity;BMP_temperature;BMP_pressure;BME280_temperature;BME280_humidity;BME280_pressure;Samples;Min_cycle;Max_cycle;Signal;HPM_P1;HPM_P2
2022/10/10 00:01:17;;;;;;;;;3.67;3.67;;;;;;;;5095727;27;45327;-74
2022/10/10 00:03:43;;;;;;;;;5.00;4.00;;;;;;;;5096661;27;45350;-74
2022/10/10 00:06:09;;;;;;;;;5.00;4.00;;;;;;;;5081797;27;47058;-74
2022/10/10 00:08:34;;;;;;;;;5.33;5.33;;;;;;;;5085633;27;45306;-74
2022/10/10 00:10:59;;;;;;;;;4.00;4.00;;;;;;;;5096532;27;45913;-74
2022/10/10 00:13:24;;;;;;;;;4.00;4.00;;;;;;;;5095989;27;45261;-74
2022/10/10 00:15:50;;;;;;;;;5.67;5.67;;;;;;;;5095613;27;46267;-74
2022/10/10 00:18:15;;;;;;;;;3.67;3.67;;;;;;;;5096261;27;45362;-74
2022/10/10 00:20:40;;;;;;;;;5.00;4.67;;;;;;;;5096251;27;45546;-73
2022/10/10 00:23:06;;;;;;;;;4.00;4.00;;;;;;;;5096501;27;45478;-74
2022/10/10 00:25:32;;;;;;;;;5.00;4.00;;;;;;;;5095783;27;46078;-74
2022/10/10 00:27:59;;;;;;;;;5.33;4.00;;;;;;;;5077428;27;45855;-74
2022/10/10 00:30:25;;;;;;;;;4.00;4.00;;;;;;;;5095837;27;45410;-74
2022/10/10 00:32:50;;;;;;;;;4.00;4.00;;;;;;;;5095755;27;45431;-74
2022/10/10 00:35:15;;;;;;;;;6.00;3.00;;;;;;;;5095718;27;46133;-74
2022/10/10 00:37:40;;;;;;;;;3.00;3.00;;;;;;;;5082870;27;45406;-74
2022/10/10 00:40:06;;;;;;;;;6.00;4.00;;;;;;;;5095994;27;45552;-74
2022/10/10 00:42:31;;;;;;;;;5.33;5.33;;;;;;;;5095844;27;45513;-74
2022/10/10 00:45:15;;;;;;;;;5.00;4.00;;;;;;;;5095549;27;46064;-74
2022/10/10 00:47:40;;;;;;;;;3.67;3.67;;;;;;;;5095938;27;45456;-74
2022/10/10 00:50:05;;;;;;;;;5.00;4.00;;;;;;;;5096056;27;45486;-74
2022/10/10 00:52:31;;;;;;;;;4.00;4.00;;;;;;;;5095836;27;45423;-74
2022/10/10 00:54:56;;;;;;;;;3.00;3.00;;;;;;;;5084863;27;47231;-74
2022/10/10 00:57:22;;;;;;;;;6.00;4.67;;;;;;;;5099134;27;45317;-74
2022/10/10 00:59:47;;;;;;;;;5.33;3.67;;;;;;;;5095304;27;45336;-74
2022/10/10 01:02:13;;;;;;;;;4.67;4.67;;;;;;;;5088622;27;45337;-74
2022/10/10 01:04:42;;;;;;;;;5.00;4.00;;;;;;;;5098810;27;45562;-74
2022/10/10 01:07:10;;;;;;;;;5.33;4.00;;;;;;;;5094775;27;45296;-75
2022/10/10 01:09:38;;;;;;;;;5.00;5.00;;;;;;;;5093492;27;45390;-74
2022/10/10 01:12:16;;;;;;;;;5.67;4.67;;;;;;;;5099059;27;45348;-74
2022/10/10 01:14:41;;;;;;;;;4.00;4.00;;;;;;;;5098633;27;46242;-74
2022/10/10 01:17:12;;;;;;;;;4.67;4.67;;;;;;;;5098910;27;45448;-74
2022/10/10 01:19:40;;;;;;;;;6.00;5.00;;;;;;;;5099280;27;45362;-74
2022/10/10 01:22:19;;;;;;;;;4.67;3.67;;;;;;;;5098760;27;45376;-74
2022/10/10 01:25:03;;;;;;;;;4.67;3.00;;;;;;;;5098612;27;45427;-74
2022/10/10 01:27:33;;;;;;;;;5.33;4.00;;;;;;;;5072883;27;45302;-73
2022/10/10 01:30:07;;;;;;;;;3.00;3.00;;;;;;;;5098747;27;45438;-72
2022/10/10 01:32:36;;;;;;;;;3.33;3.33;;;;;;;;5098799;27;45406;-73
2022/10/10 01:35:20;;;;;;;;;6.00;5.33;;;;;;;;5098749;27;47225;-74
2022/10/10 01:38:00;;;;;;;;;3.67;2.67;;;;;;;;5085415;27;45388;-74
2022/10/10 01:40:40;;;;;;;;;3.00;3.00;;;;;;;;5098835;27;45418;-74
2022/10/10 01:43:07;;;;;;;;;4.00;4.00;;;;;;;;5098429;27;45411;-74
2022/10/10 01:45:32;;;;;;;;;4.33;4.33;;;;;;;;5098319;27;46142;-74
2022/10/10 01:48:00;;;;;;;;;4.00;4.00;;;;;;;;5098115;27;45465;-74
2022/10/10 01:50:26;;;;;;;;;3.00;3.00;;;;;;;;5087692;27;45402;-75
2022/10/10 01:53:10;;;;;;;;;4.00;4.00;;;;;;;;5094933;27;45454;-74
2022/10/10 01:55:58;;;;;;;;;4.00;4.00;;;;;;;;5098329;27;46092;-74
2022/10/10 01:58:33;;;;;;;;;3.33;3.00;;;;;;;;5015061;28;45342;-74
2022/10/10 02:01:14;;;;;;;;;4.00;4.00;;;;;;;;5015219;28;46618;-74
2022/10/10 02:03:45;;;;;;;;;4.00;4.00;;;;;;;;5002798;28;45377;-74
2022/10/10 02:06:21;;;;;;;;;5.00;4.00;;;;;;;;5013830;28;45961;-72
2022/10/10 02:08:57;;;;;;;;;3.00;3.00;;;;;;;;5004462;28;45436;-74
2022/10/10 02:11:24;;;;;;;;;5.00;3.67;;;;;;;;5014629;28;45392;-74
2022/10/10 02:13:57;;;;;;;;;4.67;4.00;;;;;;;;4998522;28;45393;-74
2022/10/10 02:16:30;;;;;;;;;4.67;4.67;;;;;;;;5014694;28;45408;-74
2022/10/10 02:18:58;;;;;;;;;4.00;4.00;;;;;;;;5007940;28;45355;-74
2022/10/10 02:21:24;;;;;;;;;3.67;3.67;;;;;;;;5008417;28;45373;-74
2022/10/10 02:23:51;;;;;;;;;4.33;4.00;;;;;;;;5014772;28;45572;-73
2022/10/10 02:26:17;;;;;;;;;3.33;3.33;;;;;;;;5014492;28;45490;-74
2022/10/10 02:28:45;;;;;;;;;4.67;4.00;;;;;;;;5014532;28;45618;-74
2022/10/10 02:31:15;;;;;;;;;3.33;3.00;;;;;;;;5014512;28;45360;-74
2022/10/10 02:34:00;;;;;;;;;3.00;3.00;;;;;;;;5015104;28;45542;-72
2022/10/10 02:36:27;;;;;;;;;3.00;3.00;;;;;;;;5082274;27;45446;-74
2022/10/10 02:38:53;;;;;;;;;4.33;4.33;;;;;;;;5091029;27;45358;-72
2022/10/10 02:41:20;;;;;;;;;4.67;4.67;;;;;;;;5097332;27;45461;-72
2022/10/10 02:43:46;;;;;;;;;3.33;3.33;;;;;;;;5097852;27;45450;-74
2022/10/10 02:46:12;;;;;;;;;2.00;2.00;;;;;;;;5097345;27;45459;-72
2022/10/10 02:48:38;;;;;;;;;5.00;4.00;;;;;;;;5097393;27;45335;-74
2022/10/10 02:51:03;;;;;;;;;5.00;3.67;;;;;;;;5097513;27;45469;-73
2022/10/10 02:53:28;;;;;;;;;4.00;4.00;;;;;;;;5097752;27;45379;-74
2022/10/10 02:55:54;;;;;;;;;3.00;3.00;;;;;;;;5096926;27;45422;-74
2022/10/10 02:58:19;;;;;;;;;3.00;3.00;;;;;;;;5097630;27;45430;-74
2022/10/10 03:00:44;;;;;;;;;7.00;3.00;;;;;;;;5097648;27;45564;-74
2022/10/10 03:03:09;;;;;;;;;4.67;4.67;;;;;;;;5097005;27;45498;-74
2022/10/10 03:05:34;;;;;;;;;6.00;4.00;;;;;;;;5097334;27;45474;-74
2022/10/10 03:07:59;;;;;;;;;3.00;3.00;;;;;;;;5086309;27;45315;-73
2022/10/10 03:10:25;;;;;;;;;4.00;4.00;;;;;;;;5097205;27;45342;-74
2022/10/10 03:12:50;;;;;;;;;3.67;3.67;;;;;;;;5097270;27;45357;-73
2022/10/10 03:15:15;;;;;;;;;3.00;3.00;;;;;;;;5097080;27;46335;-74
2022/10/10 03:17:41;;;;;;;;;3.00;3.00;;;;;;;;5097200;27;45411;-73
2022/10/10 03:20:07;;;;;;;;;3.67;3.67;;;;;;;;5096983;27;45336;-75
2022/10/10 03:22:32;;;;;;;;;3.00;3.00;;;;;;;;5097179;27;45436;-72
2022/10/10 03:24:57;;;;;;;;;4.00;4.00;;;;;;;;5095638;27;46004;-73
2022/10/10 03:27:23;;;;;;;;;4.00;3.00;;;;;;;;5083245;27;45437;-75
2022/10/10 03:29:48;;;;;;;;;3.00;3.00;;;;;;;;5097104;27;45375;-75
2022/10/10 03:32:13;;;;;;;;;3.33;3.33;;;;;;;;5096782;27;45325;-75
2022/10/10 03:34:38;;;;;;;;;4.33;4.33;;;;;;;;5096885;27;45372;-74
2022/10/10 03:37:03;;;;;;;;;3.33;3.00;;;;;;;;5085186;27;45295;-74
2022/10/10 03:39:29;;;;;;;;;4.00;4.00;;;;;;;;5094971;27;45302;-74
2022/10/10 03:41:54;;;;;;;;;2.33;2.33;;;;;;;;5096852;27;45442;-74
2022/10/10 03:44:19;;;;;;;;;3.00;3.00;;;;;;;;5096344;27;46156;-73
2022/10/10 03:46:44;;;;;;;;;5.33;4.00;;;;;;;;5088203;27;45358;-74
2022/10/10 03:49:09;;;;;;;;;4.67;4.67;;;;;;;;5090627;27;45242;-74
2022/10/10 03:51:35;;;;;;;;;3.00;3.00;;;;;;;;5096696;27;45477;-74
2022/10/10 03:54:00;;;;;;;;;3.67;3.67;;;;;;;;5095987;27;45328;-74
2022/10/10 03:56:25;;;;;;;;;3.00;3.00;;;;;;;;5096274;27;45358;-74
2022/10/10 03:58:50;;;;;;;;;5.33;4.00;;;;;;;;5096615;27;45270;-73
2022/10/10 04:01:15;;;;;;;;;6.00;5.00;;;;;;;;5081669;27;45254;-74
2022/10/10 04:03:41;;;;;;;;;3.67;3.00;;;;;;;;5096332;27;46119;-74
2022/10/10 04:06:06;;;;;;;;;6.33;3.00;;;;;;;;5096301;27;45272;-73
2022/10/10 04:08:31;;;;;;;;;3.33;3.33;;;;;;;;5085199;27;45298;-74
2022/10/10 04:10:56;;;;;;;;;4.00;4.00;;;;;;;;5096554;27;45449;-73
2022/10/10 04:13:24;;;;;;;;;2.67;2.67;;;;;;;;5095890;27;45418;-74
2022/10/10 04:15:50;;;;;;;;;3.00;3.00;;;;;;;;5096226;27;45390;-73
2022/10/10 04:18:15;;;;;;;;;2.33;2.33;;;;;;;;5096197;27;45415;-74
2022/10/10 04:20:40;;;;;;;;;3.33;3.33;;;;;;;;5077652;27;45535;-73
2022/10/10 04:23:05;;;;;;;;;3.67;3.00;;;;;;;;5096290;27;45360;-73
2022/10/10 04:25:31;;;;;;;;;3.00;3.00;;;;;;;;5095828;27;45485;-74
2022/10/10 04:27:56;;;;;;;;;4.00;4.00;;;;;;;;5095004;27;45530;-74
2022/10/10 04:30:21;;;;;;;;;3.00;2.00;;;;;;;;5096191;27;45306;-74
2022/10/10 04:32:46;;;;;;;;;4.00;3.00;;;;;;;;5090545;27;45866;-74
2022/10/10 04:35:12;;;;;;;;;4.33;4.33;;;;;;;;5086559;27;45530;-74
2022/10/10 04:37:37;;;;;;;;;4.00;3.00;;;;;;;;5081530;27;45479;-73
2022/10/10 04:40:03;;;;;;;;;6.00;4.67;;;;;;;;5095921;27;45682;-74
2022/10/10 04:42:28;;;;;;;;;4.67;4.00;;;;;;;;5095742;27;45493;-74
2022/10/10 04:44:53;;;;;;;;;4.67;3.00;;;;;;;;5095988;27;45337;-73
2022/10/10 04:47:18;;;;;;;;;5.33;4.00;;;;;;;;5095952;27;45379;-74
2022/10/10 04:49:43;;;;;;;;;3.00;2.33;;;;;;;;5095364;27;45406;-73
2022/10/10 04:52:09;;;;;;;;;4.00;4.00;;;;;;;;5095688;27;46277;-73
2022/10/10 04:54:34;;;;;;;;;3.00;3.00;;;;;;;;5095479;27;45295;-73
2022/10/10 04:57:00;;;;;;;;;3.67;3.00;;;;;;;;5095955;27;45500;-73
2022/10/10 04:59:25;;;;;;;;;3.67;3.67;;;;;;;;5095567;27;45296;-73
2022/10/10 05:01:50;;;;;;;;;3.67;2.67;;;;;;;;5095381;27;46295;-73
2022/10/10 05:04:15;;;;;;;;;3.67;3.67;;;;;;;;5076710;27;45297;-73
2022/10/10 05:06:41;;;;;;;;;3.00;3.00;;;;;;;;5090933;27;45464;-74
2022/10/10 05:09:06;;;;;;;;;3.00;3.00;;;;;;;;5086369;27;45356;-77
2022/10/10 05:11:31;;;;;;;;;5.00;3.33;;;;;;;;5095374;27;46245;-76
2022/10/10 05:13:56;;;;;;;;;5.67;4.67;;;;;;;;5095376;27;45502;-74
2022/10/10 05:16:21;;;;;;;;;5.00;2.00;;;;;;;;5095661;27;45544;-74
2022/10/10 05:18:47;;;;;;;;;3.67;3.33;;;;;;;;5095588;27;45498;-76
2022/10/10 05:21:12;;;;;;;;;3.00;3.00;;;;;;;;5095349;27;45997;-76
2022/10/10 05:23:37;;;;;;;;;3.00;3.00;;;;;;;;5095457;27;45364;-76
2022/10/10 05:26:03;;;;;;;;;2.00;2.00;;;;;;;;5087053;27;45394;-75
2022/10/10 05:28:28;;;;;;;;;5.00;3.00;;;;;;;;5090634;27;45430;-74
2022/10/10 05:30:54;;;;;;;;;5.00;4.00;;;;;;;;5095066;27;45537;-74
2022/10/10 05:33:19;;;;;;;;;3.67;2.00;;;;;;;;5094695;27;45398;-74
2022/10/10 05:35:44;;;;;;;;;5.00;3.00;;;;;;;;5094701;27;45645;-74
2022/10/10 05:38:09;;;;;;;;;3.00;2.00;;;;;;;;5074623;28;45500;-73
2022/10/10 05:40:37;;;;;;;;;3.00;2.67;;;;;;;;5089914;27;45379;-74
2022/10/10 05:43:02;;;;;;;;;3.67;3.67;;;;;;;;5098509;27;45345;-75
2022/10/10 05:45:28;;;;;;;;;4.00;4.00;;;;;;;;5098812;27;45347;-74
2022/10/10 05:47:53;;;;;;;;;5.00;4.67;;;;;;;;5098155;27;45394;-73
2022/10/10 05:50:28;;;;;;;;;5.00;2.67;;;;;;;;5098648;27;46281;-73
2022/10/10 05:52:53;;;;;;;;;3.00;2.50;;;;;;;;5098380;27;45348;-73
2022/10/10 05:55:18;;;;;;;;;4.67;4.00;;;;;;;;5098324;27;45402;-73
2022/10/10 05:57:44;;;;;;;;;4.00;3.00;;;;;;;;5098375;27;45392;-73
2022/10/10 06:00:09;;;;;;;;;6.00;3.00;;;;;;;;5098068;27;46455;-73
2022/10/10 06:02:34;;;;;;;;;5.67;4.33;;;;;;;;5097795;27;45837;-73
2022/10/10 06:04:59;;;;;;;;;2.00;2.00;;;;;;;;5098340;27;45475;-73
2022/10/10 06:07:25;;;;;;;;;2.67;2.67;;;;;;;;5091388;27;45403;-72
2022/10/10 06:09:50;;;;;;;;;5.00;3.00;;;;;;;;5094104;27;45296;-74
2022/10/10 06:12:15;;;;;;;;;5.00;3.00;;;;;;;;5098365;27;45305;-74
2022/10/10 06:14:40;;;;;;;;;4.33;4.33;;;;;;;;5097893;27;45262;-74
2022/10/10 06:17:06;;;;;;;;;5.00;4.00;;;;;;;;5098221;27;45311;-73
2022/10/10 06:19:31;;;;;;;;;4.00;1.00;;;;;;;;5098261;27;45433;-74
2022/10/10 06:21:56;;;;;;;;;4.33;3.00;;;;;;;;5097798;27;45293;-73
2022/10/10 06:24:21;;;;;;;;;6.00;3.00;;;;;;;;5098269;27;45429;-73
2022/10/10 06:26:47;;;;;;;;;5.67;4.67;;;;;;;;5097682;27;45446;-73
2022/10/10 06:29:12;;;;;;;;;4.75;3.50;;;;;;;;5097819;27;46218;-76
2022/10/10 06:31:39;;;;;;;;;6.33;3.33;;;;;;;;5097670;27;45441;-73
2022/10/10 06:34:05;;;;;;;;;6.00;5.00;;;;;;;;5095792;27;45382;-73
2022/10/10 06:36:30;;;;;;;;;3.00;3.00;;;;;;;;5078552;27;45425;-73
2022/10/10 06:38:55;;;;;;;;;3.00;3.00;;;;;;;;5091506;27;46601;-73
2022/10/10 06:41:21;;;;;;;;;4.00;3.67;;;;;;;;5097578;27;45582;-74
2022/10/10 06:43:48;;;;;;;;;3.67;3.33;;;;;;;;5097835;27;45390;-73
2022/10/10 06:46:13;;;;;;;;;5.33;4.00;;;;;;;;5093550;27;45326;-73
2022/10/10 06:48:38;;;;;;;;;5.00;4.00;;;;;;;;5086876;27;46025;-74
2022/10/10 06:51:05;;;;;;;;;4.67;4.67;;;;;;;;5097121;27;45384;-74
2022/10/10 06:53:31;;;;;;;;;4.67;4.67;;;;;;;;5097795;27;45427;-73
2022/10/10 06:55:57;;;;;;;;;7.33;3.33;;;;;;;;5097383;27;45399;-73
2022/10/10 06:58:23;;;;;;;;;5.00;4.00;;;;;;;;5091294;27;46214;-73
2022/10/10 07:00:52;;;;;;;;;2.33;2.00;;;;;;;;5088853;27;45362;-73
2022/10/10 07:03:18;;;;;;;;;5.00;4.33;;;;;;;;5096607;27;45373;-74
2022/10/10 07:05:43;;;;;;;;;3.33;3.00;;;;;;;;5097396;27;45446;-73
2022/10/10 07:08:09;;;;;;;;;3.67;3.67;;;;;;;;5086318;27;45794;-74
2022/10/10 07:10:34;;;;;;;;;5.00;3.33;;;;;;;;5097148;27;45463;-73
2022/10/10 07:12:59;;;;;;;;;4.00;4.00;;;;;;;;5097435;27;45261;-73
2022/10/10 07:15:24;;;;;;;;;5.00;5.00;;;;;;;;5096654;27;45449;-73
2022/10/10 07:17:55;;;;;;;;;4.67;4.00;;;;;;;;5097108;27;45416;-74
2022/10/10 07:20:20;;;;;;;;;4.33;3.00;;;;;;;;5097042;27;45498;-74
2022/10/10 07:22:45;;;;;;;;;4.00;3.00;;;;;;;;5086053;27;45500;-73
2022/10/10 07:25:10;;;;;;;;;2.00;2.00;;;;;;;;5093472;27;45461;-74
2022/10/10 07:27:35;;;;;;;;;4.67;3.00;;;;;;;;5096979;27;45493;-73
2022/10/10 07:30:01;;;;;;;;;5.00;4.00;;;;;;;;5096522;27;45371;-73
2022/10/10 07:32:26;;;;;;;;;4.67;4.67;;;;;;;;5096913;27;45422;-74
2022/10/10 07:34:52;;;;;;;;;8.00;4.00;;;;;;;;5096948;27;45370;-73
2022/10/10 07:37:17;;;;;;;;;3.00;3.00;;;;;;;;5083178;27;47115;-74
2022/10/10 07:39:42;;;;;;;;;2.33;2.33;;;;;;;;5096775;27;45419;-73
2022/10/10 07:42:08;;;;;;;;;4.00;4.00;;;;;;;;5097000;27;45369;-73
2022/10/10 07:44:33;;;;;;;;;6.00;4.33;;;;;;;;5096341;27;45276;-73
2022/10/10 07:46:58;;;;;;;;;6.00;3.00;;;;;;;;5096795;27;46095;-73
2022/10/10 07:49:23;;;;;;;;;5.67;4.00;;;;;;;;5096664;27;45648;-73
2022/10/10 07:51:48;;;;;;;;;4.00;4.00;;;;;;;;5096791;27;45430;-73
2022/10/10 07:54:14;;;;;;;;;2.33;2.00;;;;;;;;5096829;27;45319;-74
2022/10/10 07:56:39;;;;;;;;;4.67;4.67;;;;;;;;5096292;27;46238;-73
2022/10/10 07:59:04;;;;;;;;;3.33;2.67;;;;;;;;5096357;27;45474;-74
2022/10/10 08:01:29;;;;;;;;;3.33;3.00;;;;;;;;5096611;27;45307;-73
2022/10/10 08:03:56;;;;;;;;;4.67;4.00;;;;;;;;5095246;27;45290;-74
2022/10/10 08:06:21;;;;;;;;;4.33;3.33;;;;;;;;5096216;27;47206;-73
2022/10/10 08:08:47;;;;;;;;;2.67;2.67;;;;;;;;5085349;27;45478;-73
2022/10/10 08:11:12;;;;;;;;;5.00;4.00;;;;;;;;5082774;27;45348;-73
2022/10/10 08:13:41;;;;;;;;;5.67;3.00;;;;;;;;5095399;27;45283;-74
2022/10/10 08:16:06;;;;;;;;;5.00;5.00;;;;;;;;5095966;27;46259;-74
2022/10/10 08:18:31;;;;;;;;;4.00;4.00;;;;;;;;5096135;27;45378;-73
2022/10/10 08:20:57;;;;;;;;;3.67;3.00;;;;;;;;5096637;27;45532;-74
2022/10/10 08:23:22;;;;;;;;;2.67;2.67;;;;;;;;5096071;27;45350;-73
2022/10/10 08:25:47;;;;;;;;;1.00;1.00;;;;;;;;5088425;27;45330;-74
2022/10/10 08:28:12;;;;;;;;;3.00;2.00;;;;;;;;5089055;27;45296;-73
2022/10/10 08:30:41;;;;;;;;;3.67;3.67;;;;;;;;5095885;27;45478;-73
2022/10/10 08:33:06;;;;;;;;;4.00;4.00;;;;;;;;5096383;27;45817;-74
2022/10/10 08:35:35;;;;;;;;;6.00;4.67;;;;;;;;5095756;27;47284;-74
2022/10/10 08:38:00;;;;;;;;;4.33;4.33;;;;;;;;5082681;27;45339;-73
2022/10/10 08:40:27;;;;;;;;;4.67;4.00;;;;;;;;5095954;27;45318;-73
2022/10/10 08:42:54;;;;;;;;;3.00;3.00;;;;;;;;5095669;27;45312;-73
2022/10/10 08:45:23;;;;;;;;;4.33;3.00;;;;;;;;5095622;27;45254;-73
2022/10/10 08:47:52;;;;;;;;;3.33;3.00;;;;;;;;5090114;27;45338;-74
2022/10/10 08:50:20;;;;;;;;;4.33;3.33;;;;;;;;5074384;27;45323;-74
2022/10/10 08:52:47;;;;;;;;;3.00;3.00;;;;;;;;5095576;27;45524;-74
2022/10/10 08:55:32;;;;;;;;;3.67;3.33;;;;;;;;5095595;27;46181;-74
2022/10/10 08:57:58;;;;;;;;;3.00;3.00;;;;;;;;5093830;27;45331;-73
2022/10/10 09:00:25;;;;;;;;;4.33;4.00;;;;;;;;5087291;27;45316;-73
2022/10/10 09:02:51;;;;;;;;;4.00;3.67;;;;;;;;5090054;27;45431;-74
2022/10/10 09:05:19;;;;;;;;;4.00;4.00;;;;;;;;5088446;27;45451;-73
2022/10/10 09:07:54;;;;;;;;;3.00;3.00;;;;;;;;5078718;27;45527;-74
2022/10/10 09:10:22;;;;;;;;;4.00;4.00;;;;;;;;5067919;27;45726;-73
2022/10/10 09:12:53;;;;;;;;;3.33;3.00;;;;;;;;5095272;27;45363;-73
2022/10/10 09:15:22;;;;;;;;;4.00;3.67;;;;;;;;5092396;27;46177;-74
2022/10/10 09:17:53;;;;;;;;;2.67;2.67;;;;;;;;5090510;27;45226;-74
2022/10/10 09:20:37;;;;;;;;;3.67;3.00;;;;;;;;5099045;27;45423;-74
2022/10/10 09:23:08;;;;;;;;;6.33;3.33;;;;;;;;5085862;27;45363;-73
2022/10/10 09:25:39;;;;;;;;;5.67;5.00;;;;;;;;5098228;27;47173;-73
2022/10/10 09:28:04;;;;;;;;;3.00;3.00;;;;;;;;5098761;27;45442;-74
2022/10/10 09:30:30;;;;;;;;;4.00;4.00;;;;;;;;5098780;27;45462;-74
2022/10/10 09:33:00;;;;;;;;;5.00;3.67;;;;;;;;5092325;27;45574;-73
2022/10/10 09:35:28;;;;;;;;;4.00;3.00;;;;;;;;5091352;27;45409;-74
2022/10/10 09:37:57;;;;;;;;;3.00;3.00;;;;;;;;5085205;27;45318;-73
2022/10/10 09:40:27;;;;;;;;;4.00;4.00;;;;;;;;5098517;27;45428;-73
2022/10/10 09:42:52;;;;;;;;;5.00;5.00;;;;;;;;5098710;27;45434;-74
2022/10/10 09:45:19;;;;;;;;;5.00;4.67;;;;;;;;5098370;27;46231;-74
2022/10/10 09:47:46;;;;;;;;;3.33;3.33;;;;;;;;5097868;27;45334;-74
2022/10/10 09:50:13;;;;;;;;;4.00;3.00;;;;;;;;5098633;27;45341;-73
2022/10/10 09:52:39;;;;;;;;;6.00;4.33;;;;;;;;5098299;27;45705;-74
2022/10/10 09:55:13;;;;;;;;;3.67;3.00;;;;;;;;5098144;27;45424;-74
2022/10/10 09:57:41;;;;;;;;;4.33;4.33;;;;;;;;5098457;27;45438;-73
2022/10/10 10:00:18;;;;;;;;;3.33;3.33;;;;;;;;5098306;27;45371;-73
2022/10/10 10:02:46;;;;;;;;;4.00;3.33;;;;;;;;5084113;27;45343;-74
2022/10/10 10:05:25;;;;;;;;;5.67;4.00;;;;;;;;5069454;27;46128;-73
2022/10/10 10:07:51;;;;;;;;;4.33;3.33;;;;;;;;5087653;27;45494;-74
2022/10/10 10:10:25;;;;;;;;;5.00;5.00;;;;;;;;5097688;27;45630;-73
2022/10/10 10:12:51;;;;;;;;;3.00;3.00;;;;;;;;5098388;27;45301;-73
2022/10/10 10:15:20;;;;;;;;;4.33;4.33;;;;;;;;5097704;27;46008;-73
2022/10/10 10:17:45;;;;;;;;;5.00;4.00;;;;;;;;5098188;27;45352;-74
2022/10/10 10:20:31;;;;;;;;;5.33;5.33;;;;;;;;5097964;27;45355;-74
2022/10/10 10:22:56;;;;;;;;;4.67;3.33;;;;;;;;5098267;27;45343;-74
2022/10/10 10:25:37;;;;;;;;;5.00;5.00;;;;;;;;5096458;27;47151;-74
2022/10/10 10:28:11;;;;;;;;;4.00;4.00;;;;;;;;5097769;27;45327;-73
2022/10/10 10:30:38;;;;;;;;;7.33;4.67;;;;;;;;5097646;27;45465;-74
2022/10/10 10:33:03;;;;;;;;;5.67;3.67;;;;;;;;5097803;27;45358;-73
2022/10/10 10:35:28;;;;;;;;;5.67;5.67;;;;;;;;5079564;27;46265;-73
2022/10/10 10:38:12;;;;;;;;;4.33;4.00;;;;;;;;5084046;27;45515;-74
2022/10/10 10:40:52;;;;;;;;;2.67;2.67;;;;;;;;5097927;27;45440;-74
2022/10/10 10:43:32;;;;;;;;;6.67;4.33;;;;;;;;5077110;28;45353;-73
2022/10/10 10:46:06;;;;;;;;;4.67;4.33;;;;;;;;5091169;27;46387;-75
2022/10/10 10:48:42;;;;;;;;;4.33;4.00;;;;;;;;5086001;27;45342;-74
2022/10/10 10:51:13;;;;;;;;;5.00;4.00;;;;;;;;5097491;27;45330;-73
2022/10/10 10:53:57;;;;;;;;;2.67;2.67;;;;;;;;5088350;27;45345;-74
2022/10/10 10:56:32;;;;;;;;;7.00;5.33;;;;;;;;5094492;27;46375;-74
2022/10/10 10:58:59;;;;;;;;;6.33;4.33;;;;;;;;5097592;27;45352;-74
2022/10/10 11:01:30;;;;;;;;;4.33;4.00;;;;;;;;5097257;27;45390;-74
2022/10/10 11:04:18;;;;;;;;;4.67;3.67;;;;;;;;5097117;27;45401;-74
2022/10/10 11:06:53;;;;;;;;;6.00;4.00;;;;;;;;5084153;27;45526;-74
2022/10/10 11:09:47;;;;;;;;;5.00;5.00;;;;;;;;5088734;27;45483;-74
2022/10/10 11:12:31;;;;;;;;;4.00;3.00;;;;;;;;5071365;27;45461;-75
2022/10/10 11:14:59;;;;;;;;;3.00;3.00;;;;;;;;5090892;27;45431;-74
2022/10/10 11:17:29;;;;;;;;;5.67;5.67;;;;;;;;5085171;27;47175;-75
2022/10/10 11:20:00;;;;;;;;;2.67;2.67;;;;;;;;5096757;27;45456;-72
2022/10/10 11:22:29;;;;;;;;;4.00;4.00;;;;;;;;5088907;27;45501;-74
2022/10/10 11:24:58;;;;;;;;;3.00;3.00;;;;;;;;5091119;27;45480;-74
2022/10/10 11:27:45;;;;;;;;;4.00;4.00;;;;;;;;5096805;27;46407;-74
2022/10/10 11:30:20;;;;;;;;;4.00;4.00;;;;;;;;5095099;27;45419;-74
2022/10/10 11:33:00;;;;;;;;;4.00;4.00;;;;;;;;5095963;27;45433;-74
2022/10/10 11:35:35;;;;;;;;;3.67;3.00;;;;;;;;5096739;27;45475;-74
2022/10/10 11:38:05;;;;;;;;;5.33;3.33;;;;;;;;5080766;27;47017;-74
2022/10/10 11:40:59;;;;;;;;;4.67;4.00;;;;;;;;5096653;27;45442;-74
2022/10/10 11:43:29;;;;;;;;;4.00;4.00;;;;;;;;5078717;27;45414;-73
2022/10/10 11:45:58;;;;;;;;;5.67;4.67;;;;;;;;5096346;27;45406;-74
2022/10/10 11:48:24;;;;;;;;;6.00;4.00;;;;;;;;5096668;27;46387;-74
2022/10/10 11:50:56;;;;;;;;;3.33;3.33;;;;;;;;5096046;27;45521;-74
2022/10/10 11:53:29;;;;;;;;;3.67;3.67;;;;;;;;5096700;27;45333;-75
2022/10/10 11:56:08;;;;;;;;;7.00;4.00;;;;;;;;5096392;27;45360;-74
2022/10/10 11:58:36;;;;;;;;;2.33;2.33;;;;;;;;5070463;27;47048;-74
2022/10/10 12:01:20;;;;;;;;;3.67;3.67;;;;;;;;5096554;27;45473;-74
2022/10/10 12:03:45;;;;;;;;;6.00;4.00;;;;;;;;5072027;27;45467;-74
2022/10/10 12:06:30;;;;;;;;;4.33;2.67;;;;;;;;5096122;27;45458;-74
2022/10/10 12:08:57;;;;;;;;;5.00;5.00;;;;;;;;5083833;27;46451;-74
2022/10/10 12:11:28;;;;;;;;;2.67;2.67;;;;;;;;5096200;27;45577;-74
2022/10/10 12:13:56;;;;;;;;;4.00;4.00;;;;;;;;5096365;27;45380;-74
2022/10/10 12:16:24;;;;;;;;;4.00;4.00;;;;;;;;5096013;27;45498;-74
2022/10/10 12:19:19;;;;;;;;;5.00;4.00;;;;;;;;5077785;27;47178;-74
2022/10/10 12:21:58;;;;;;;;;2.67;2.67;;;;;;;;5078336;27;45469;-75
2022/10/10 12:24:28;;;;;;;;;3.00;3.00;;;;;;;;5096235;27;45461;-75
2022/10/10 12:26:53;;;;;;;;;2.67;2.67;;;;;;;;5096229;27;45487;-74
2022/10/10 12:29:31;;;;;;;;;5.00;3.00;;;;;;;;5095947;27;47275;-73
2022/10/10 12:32:14;;;;;;;;;3.00;2.33;;;;;;;;5096020;27;45359;-74
2022/10/10 12:34:42;;;;;;;;;3.33;3.33;;;;;;;;5068315;27;45556;-74
2022/10/10 12:37:20;;;;;;;;;3.00;3.00;;;;;;;;5084030;27;45300;-74
2022/10/10 12:40:14;;;;;;;;;3.67;3.67;;;;;;;;5095732;27;46161;-74
2022/10/10 12:42:46;;;;;;;;;2.33;2.33;;;;;;;;5077433;27;45512;-75
2022/10/10 12:45:29;;;;;;;;;5.33;5.00;;;;;;;;5095863;27;45340;-74
2022/10/10 12:47:56;;;;;;;;;3.33;3.33;;;;;;;;5095742;27;45470;-75
2022/10/10 12:50:25;;;;;;;;;4.67;3.00;;;;;;;;5098223;27;46225;-73
2022/10/10 12:52:50;;;;;;;;;5.67;3.33;;;;;;;;5084817;27;45359;-74
2022/10/10 12:55:21;;;;;;;;;2.33;2.33;;;;;;;;5099425;27;45378;-74
2022/10/10 12:57:47;;;;;;;;;3.67;3.67;;;;;;;;5099523;27;45370;-74
2022/10/10 13:00:18;;;;;;;;;6.67;3.33;;;;;;;;5092141;27;45348;-74
2022/10/10 13:02:45;;;;;;;;;5.33;4.00;;;;;;;;5092226;27;45379;-74
2022/10/10 13:05:12;;;;;;;;;5.67;4.67;;;;;;;;5084696;27;45344;-74
2022/10/10 13:07:38;;;;;;;;;5.33;4.00;;;;;;;;5090587;27;45546;-74
2022/10/10 13:10:07;;;;;;;;;3.00;3.00;;;;;;;;5096915;27;45420;-74
2022/10/10 13:12:33;;;;;;;;;2.67;2.00;;;;;;;;5088410;27;45424;-74
2022/10/10 13:14:58;;;;;;;;;4.00;4.00;;;;;;;;5095637;27;45517;-74
2022/10/10 13:17:26;;;;;;;;;3.00;3.00;;;;;;;;5099024;27;45467;-75
2022/10/10 13:19:52;;;;;;;;;3.67;3.67;;;;;;;;5080614;27;46304;-74
2022/10/10 13:22:19;;;;;;;;;4.33;4.33;;;;;;;;5099047;27;45429;-74
2022/10/10 13:24:44;;;;;;;;;4.33;4.00;;;;;;;;5099003;27;45446;-74
2022/10/10 13:27:18;;;;;;;;;4.00;4.00;;;;;;;;5098972;27;45511;-74
2022/10/10 13:29:43;;;;;;;;;4.00;4.00;;;;;;;;5098795;27;46248;-74
2022/10/10 13:32:23;;;;;;;;;4.00;3.00;;;;;;;;5098248;27;45277;-75
2022/10/10 13:34:51;;;;;;;;;6.00;5.00;;;;;;;;5073688;27;45329;-74
2022/10/10 13:37:17;;;;;;;;;3.00;3.00;;;;;;;;5085495;27;45461;-74
2022/10/10 13:39:43;;;;;;;;;3.00;3.00;;;;;;;;5098712;27;45948;-74
2022/10/10 13:42:27;;;;;;;;;4.00;4.00;;;;;;;;5098420;27;45320;-74
2022/10/10 13:44:52;;;;;;;;;2.00;2.00;;;;;;;;5071450;27;45349;-74
2022/10/10 13:47:36;;;;;;;;;2.67;2.67;;;;;;;;5079944;27;45316;-74
2022/10/10 13:50:02;;;;;;;;;3.00;3.00;;;;;;;;5072039;27;46305;-74
2022/10/10 13:52:28;;;;;;;;;2.67;2.00;;;;;;;;5098445;27;45344;-74
2022/10/10 13:54:53;;;;;;;;;4.33;3.33;;;;;;;;5098415;27;45459;-74
2022/10/10 13:57:21;;;;;;;;;5.00;3.00;;;;;;;;5098482;27;45360;-74
2022/10/10 13:59:49;;;;;;;;;3.00;3.00;;;;;;;;5083533;27;45428;-74
2022/10/10 14:02:15;;;;;;;;;4.00;4.00;;;;;;;;5096870;27;45451;-74
2022/10/10 14:04:46;;;;;;;;;3.00;3.00;;;;;;;;5097966;27;45732;-74
2022/10/10 14:07:22;;;;;;;;;3.00;3.00;;;;;;;;5093280;27;45312;-74
2022/10/10 14:09:50;;;;;;;;;5.33;4.00;;;;;;;;5093590;27;46668;-73
2022/10/10 14:12:19;;;;;;;;;4.33;3.67;;;;;;;;5098364;27;45384;-74
2022/10/10 14:14:47;;;;;;;;;4.00;2.67;;;;;;;;5098093;27;45290;-74
2022/10/10 14:17:13;;;;;;;;;3.00;3.00;;;;;;;;5097655;27;45442;-74
2022/10/10 14:19:39;;;;;;;;;4.00;4.00;;;;;;;;5097978;27;47182;-74
2022/10/10 14:22:04;;;;;;;;;2.00;2.00;;;;;;;;5097893;27;45261;-74
2022/10/10 14:24:30;;;;;;;;;2.00;2.00;;;;;;;;5080098;27;45831;-74
2022/10/10 14:26:55;;;;;;;;;6.00;4.00;;;;;;;;5097943;27;45334;-73
2022/10/10 14:29:21;;;;;;;;;4.00;3.33;;;;;;;;5088686;27;47097;-74
2022/10/10 14:31:46;;;;;;;;;2.67;2.67;;;;;;;;5092088;27;45364;-74
2022/10/10 14:34:12;;;;;;;;;3.33;3.33;;;;;;;;5097721;27;45478;-74
2022/10/10 14:36:45;;;;;;;;;3.00;3.00;;;;;;;;5090163;27;45357;-74
2022/10/10 14:39:12;;;;;;;;;4.67;3.00;;;;;;;;5093082;27;47006;-74
2022/10/10 14:41:37;;;;;;;;;3.00;3.00;;;;;;;;5097731;27;45367;-75
2022/10/10 14:44:03;;;;;;;;;2.00;2.00;;;;;;;;5097831;27;45355;-74
2022/10/10 14:46:28;;;;;;;;;3.67;3.67;;;;;;;;5097354;27;45335;-74
2022/10/10 14:48:53;;;;;;;;;3.00;3.00;;;;;;;;5097668;27;46225;-74
2022/10/10 14:51:19;;;;;;;;;3.00;3.00;;;;;;;;5097436;27;45428;-74